Time;durP1;ratioP1;P1;durP2;ratioP2;P2;SDS_P1;SDS_P2;PMS_P1;PMS_P2;Temp;Humidity;BMP_temperature;BMP_pressure;BME280_temperature;BME280_humidity;BME280_pressure;Samples;Min_cycle;Max_cycle;Signal;HPM_P1;HPM_P2
2022/04/16 00:00:54;;;;;;;2.83;1.83;;;18.00;66.80;;;;;;5225858;28;20746;-69
2022/04/16 00:03:46;;;;;;;2.43;2.00;;;17.90;66.70;;;;;;5212483;28;20288;-69
2022/04/16 00:06:39;;;;;;;2.27;2.00;;;17.90;66.70;;;;;;5207485;28;20208;-70
2022/04/16 00:09:31;;;;;;;2.30;2.00;;;18.00;66.80;;;;;;5204541;28;20223;-69
2022/04/16 00:12:24;;;;;;;2.57;2.00;;;17.90;66.70;;;;;;5206038;28;20673;-69
2022/04/16 00:15:16;;;;;;;2.17;1.83;;;17.90;66.70;;;;;;5203945;28;20216;-69
2022/04/16 00:18:08;;;;;;;2.13;1.93;;;17.90;66.70;;;;;;5203755;28;20189;-69
2022/04/16 00:21:05;;;;;;;2.07;1.67;;;17.90;66.70;;;;;;5208798;28;20347;-69
2022/04/16 00:23:57;;;;;;;2.07;1.83;;;17.90;66.70;;;;;;5224271;28;20192;-69
2022/04/16 00:26:50;;;;;;;1.93;1.73;;;17.90;66.70;;;;;;5224708;28;20193;-69
2022/04/16 00:29:43;;;;;;;2.67;1.93;;;17.90;66.70;;;;;;5224545;28;20193;-69
2022/04/16 00:32:35;;;;;;;1.90;1.70;;;17.90;66.70;;;;;;5218268;28;20190;-69
2022/04/16 00:35:29;;;;;;;1.60;1.50;;;17.90;66.60;;;;;;5212345;28;20235;-70
2022/04/16 00:38:21;;;;;;;1.90;1.67;;;17.90;66.60;;;;;;5224633;28;20278;-69
2022/04/16 00:41:13;;;;;;;2.00;1.60;;;17.90;66.60;;;;;;5223481;28;20692;-69
2022/04/16 00:44:06;;;;;;;1.67;1.57;;;17.90;66.60;;;;;;5223665;28;20222;-69
2022/04/16 00:46:59;;;;;;;2.17;1.73;;;17.90;66.60;;;;;;5218693;28;20197;-70
2022/04/16 00:49:52;;;;;;;1.53;1.43;;;17.90;66.60;;;;;;5203737;28;20220;-69
2022/04/16 00:52:44;;;;;;;1.70;1.60;;;17.90;66.60;;;;;;5184466;28;20194;-69
2022/04/16 00:55:38;;;;;;;2.33;1.80;;;17.90;66.50;;;;;;5214947;28;20217;-69
2022/04/16 00:58:30;;;;;;;2.67;1.27;;;17.90;66.60;;;;;;5207165;28;20203;-69
2022/04/16 01:01:22;;;;;;;2.23;1.30;;;17.90;66.50;;;;;;5228822;28;20213;-69
2022/04/16 01:04:15;;;;;;;1.70;1.53;;;17.90;66.50;;;;;;5211578;28;20218;-70
2022/04/16 01:07:08;;;;;;;1.70;1.60;;;17.90;66.50;;;;;;5211425;28;20319;-70
2022/04/16 01:10:00;;;;;;;1.83;1.60;;;17.90;66.50;;;;;;5220995;28;20194;-69
2022/04/16 01:12:52;;;;;;;1.90;1.30;;;17.90;66.40;;;;;;5188754;28;20187;-70
2022/04/16 01:15:44;;;;;;;1.63;1.43;;;17.90;66.40;;;;;;5200338;28;20217;-69
2022/04/16 01:18:45;;;;;;;1.83;1.63;;;17.90;66.40;;;;;;5207156;28;20200;-69
2022/04/16 01:21:39;;;;;;;1.90;1.50;;;17.90;66.40;;;;;;5206588;28;20248;-69
2022/04/16 01:24:34;;;;;;;1.60;1.50;;;17.90;66.40;;;;;;5226345;28;20213;-69
2022/04/16 01:27:26;;;;;;;1.70;1.60;;;17.90;66.30;;;;;;5228519;28;20193;-69
2022/04/16 01:30:20;;;;;;;1.63;1.53;;;17.90;66.30;;;;;;5227643;28;20265;-69
2022/04/16 01:33:12;;;;;;;1.27;1.17;;;17.90;66.30;;;;;;5218926;28;20196;-69
2022/04/16 01:36:05;;;;;;;2.03;1.30;;;17.80;66.20;;;;;;5218316;28;20221;-69
2022/04/16 01:38:58;;;;;;;1.30;1.20;;;17.90;66.20;;;;;;5213705;28;20186;-69
2022/04/16 01:41:51;;;;;;;1.77;1.40;;;17.90;66.20;;;;;;5216681;28;20209;-69
2022/04/16 01:44:43;;;;;;;1.67;1.57;;;17.90;66.20;;;;;;5216169;28;20214;-70
2022/04/16 01:47:38;;;;;;;2.00;1.57;;;17.90;66.20;;;;;;5216615;28;20197;-69
2022/04/16 01:50:30;;;;;;;1.50;1.40;;;17.90;66.70;;;;;;5217837;28;20312;-69
2022/04/16 01:53:23;;;;;;;1.90;1.33;;;17.90;66.10;;;;;;5215133;28;20666;-69
2022/04/16 01:56:15;;;;;;;1.43;1.30;;;17.90;66.10;;;;;;5216494;28;20299;-69
2022/04/16 01:59:09;;;;;;;1.53;1.30;;;17.90;66.10;;;;;;5216765;28;20805;-69
2022/04/16 02:02:01;;;;;;;1.30;1.20;;;17.80;66.00;;;;;;5207869;28;20584;-69
2022/04/16 02:04:53;;;;;;;1.10;1.00;;;17.90;66.10;;;;;;5185827;28;20297;-69
2022/04/16 02:07:45;;;;;;;1.20;1.10;;;17.80;66.00;;;;;;5186752;28;20203;-69
2022/04/16 02:10:37;;;;;;;1.90;1.50;;;17.90;66.00;;;;;;5206110;28;20201;-69
2022/04/16 02:13:29;;;;;;;1.53;1.43;;;17.80;65.90;;;;;;5188379;28;20244;-69
2022/04/16 02:16:22;;;;;;;1.27;1.17;;;17.90;66.00;;;;;;5186105;28;20215;-69
2022/04/16 02:19:15;;;;;;;1.20;1.10;;;17.80;65.90;;;;;;5186019;28;20712;-69
2022/04/16 02:22:07;;;;;;;1.77;1.13;;;17.80;65.90;;;;;;5186287;28;20222;-70
2022/04/16 02:25:05;;;;;;;1.63;1.37;;;17.90;65.90;;;;;;5186376;28;20226;-70
2022/04/16 02:27:57;;;;;;;1.47;1.20;;;17.80;65.80;;;;;;5196521;28;20188;-69
2022/04/16 02:30:50;;;;;;;1.30;1.20;;;17.90;65.90;;;;;;5206758;28;20193;-69
2022/04/16 02:33:43;;;;;;;1.30;1.10;;;17.80;65.80;;;;;;5186397;28;20191;-69
2022/04/16 02:36:36;;;;;;;1.40;1.07;;;17.80;65.80;;;;;;5184241;28;20198;-69
2022/04/16 02:39:28;;;;;;;0.87;0.83;;;17.80;65.80;;;;;;5185641;28;20277;-69
2022/04/16 02:42:20;;;;;;;1.60;1.00;;;17.80;65.70;;;;;;5185994;28;20213;-69
2022/04/16 02:48:24;;;;;;;1.10;1.00;;;17.80;65.70;;;;;;5185515;28;20183;-70
2022/04/16 02:51:18;;;;;;;1.07;0.90;;;17.90;65.70;;;;;;5207676;28;20192;-70
2022/04/16 02:54:10;;;;;;;1.17;0.90;;;17.80;65.60;;;;;;5212239;28;20237;-70
2022/04/16 02:57:03;;;;;;;1.20;1.07;;;17.80;65.70;;;;;;5208000;28;20673;-69
2022/04/16 02:59:55;;;;;;;0.80;0.80;;;17.80;65.60;;;;;;5207228;28;20692;-70
2022/04/16 03:02:47;;;;;;;1.30;0.90;;;17.80;65.60;;;;;;5204971;28;20692;-69
2022/04/16 03:05:41;;;;;;;1.20;1.10;;;17.80;65.60;;;;;;5205497;28;20225;-69
2022/04/16 03:08:34;;;;;;;0.80;0.80;;;17.80;65.60;;;;;;5205264;28;20581;-69
2022/04/16 03:11:26;;;;;;;1.50;1.03;;;17.90;65.70;;;;;;5203848;28;20269;-69
2022/04/16 03:17:33;;;;;;;0.90;0.87;;;17.80;65.50;;;;;;5185331;28;20198;-69
2022/04/16 03:20:27;;;;;;;1.33;1.00;;;17.80;65.50;;;;;;5188320;28;20253;-69
2022/04/16 03:23:19;;;;;;;1.40;1.07;;;17.80;65.50;;;;;;5219427;28;20286;-69
2022/04/16 03:26:13;;;;;;;1.00;0.80;;;17.80;65.50;;;;;;5209387;28;20221;-69
2022/04/16 03:29:05;;;;;;;1.00;0.93;;;17.80;65.40;;;;;;5224514;28;20733;-69
2022/04/16 03:31:57;;;;;;;1.83;0.90;;;17.80;65.40;;;;;;5214961;28;20190;-69
2022/04/16 03:34:49;;;;;;;1.00;1.00;;;17.80;65.50;;;;;;5205336;28;20237;-69
2022/04/16 03:37:41;;;;;;;1.17;0.90;;;17.80;65.50;;;;;;5205357;28;20190;-69
2022/04/16 03:40:33;;;;;;;1.03;0.90;;;17.80;65.40;;;;;;5203710;28;20198;-70
2022/04/16 03:43:29;;;;;;;0.97;0.80;;;17.80;65.40;;;;;;5217947;28;20221;-69
2022/04/16 03:46:22;;;;;;;1.10;0.87;;;17.80;65.40;;;;;;5227557;28;20266;-70
2022/04/16 03:49:14;;;;;;;1.33;1.07;;;17.90;65.40;;;;;;5226324;28;20687;-69
2022/04/16 03:52:07;;;;;;;0.97;0.80;;;17.80;65.40;;;;;;5226295;28;20675;-70
2022/04/16 04:01:21;;;;;;;1.10;0.77;;;17.80;65.30;;;;;;5226844;28;20242;-69
2022/04/16 04:04:13;;;;;;;1.10;1.00;;;17.80;65.30;;;;;;5226839;28;20710;-69
2022/04/16 04:07:05;;;;;;;1.00;0.90;;;17.80;65.30;;;;;;5226846;28;20201;-70
2022/04/16 04:09:58;;;;;;;0.77;0.77;;;17.80;65.30;;;;;;5226310;28;20204;-69
2022/04/16 04:12:50;;;;;;;1.23;1.00;;;17.80;65.30;;;;;;5214254;28;20194;-69
2022/04/16 04:15:42;;;;;;;0.70;0.70;;;17.80;65.30;;;;;;5225530;28;20213;-70
2022/04/16 04:18:35;;;;;;;1.03;0.70;;;17.80;65.30;;;;;;5223642;28;20246;-69
2022/04/16 04:21:27;;;;;;;0.60;0.60;;;17.80;65.30;;;;;;5226105;28;20266;-70
2022/04/16 04:24:19;;;;;;;1.17;0.83;;;17.80;65.20;;;;;;5226357;28;20223;-70
2022/04/16 04:27:12;;;;;;;1.03;0.90;;;17.80;65.20;;;;;;5226559;28;20201;-69
2022/04/16 04:30:04;;;;;;;1.23;0.70;;;17.80;65.10;;;;;;5230472;28;20201;-70
2022/04/16 04:32:58;;;;;;;0.73;0.70;;;17.80;65.10;;;;;;5212233;28;20202;-71
2022/04/16 04:35:52;;;;;;;1.10;0.90;;;17.80;65.10;;;;;;5208366;28;20749;-69
2022/04/16 04:38:44;;;;;;;1.00;0.70;;;17.80;65.00;;;;;;5208980;28;20189;-69
2022/04/16 04:41:36;;;;;;;0.80;0.80;;;17.80;65.00;;;;;;5208224;28;20213;-69
2022/04/16 04:44:28;;;;;;;1.07;0.90;;;17.80;65.00;;;;;;5206890;28;20217;-69
2022/04/16 04:47:20;;;;;;;1.17;0.90;;;17.80;64.80;;;;;;5208264;28;20197;-69
2022/04/16 04:50:13;;;;;;;0.80;0.70;;;17.80;64.80;;;;;;5211074;28;20202;-69
2022/04/16 04:53:06;;;;;;;0.60;0.60;;;17.80;64.80;;;;;;5226641;28;20189;-69
2022/04/16 04:55:58;;;;;;;1.07;0.70;;;17.80;64.80;;;;;;5217454;28;20916;-69
2022/04/16 04:58:50;;;;;;;0.90;0.80;;;17.80;64.80;;;;;;5194372;28;20661;-69
2022/04/16 05:01:43;;;;;;;1.23;0.80;;;17.90;64.80;;;;;;5207407;28;20562;-69
2022/04/16 05:04:35;;;;;;;1.00;0.60;;;17.80;64.70;;;;;;5207966;28;20244;-71
2022/04/16 05:07:27;;;;;;;0.73;0.60;;;17.80;64.60;;;;;;5207895;28;20209;-69
2022/04/16 05:10:21;;;;;;;1.20;0.80;;;17.90;64.70;;;;;;5208522;28;20196;-69
2022/04/16 05:13:13;;;;;;;0.60;0.60;;;17.90;64.70;;;;;;5207653;28;20190;-69
2022/04/16 05:16:07;;;;;;;0.97;0.60;;;17.90;64.80;;;;;;5207748;28;20589;-70
2022/04/16 05:18:59;;;;;;;2.10;0.53;;;17.90;64.80;;;;;;5207294;28;20279;-69
2022/04/16 05:21:51;;;;;;;1.33;0.73;;;17.90;64.70;;;;;;5205500;28;20716;-70
2022/04/16 05:24:44;;;;;;;0.60;0.60;;;17.90;64.70;;;;;;5198991;28;20224;-70
2022/04/16 05:27:38;;;;;;;0.97;0.70;;;17.90;64.70;;;;;;5205387;28;20231;-69
2022/04/16 05:30:34;;;;;;;0.73;0.60;;;17.90;64.70;;;;;;5187467;28;20199;-70
2022/04/16 05:36:35;;;;;;;1.07;0.60;;;17.90;64.70;;;;;;5186269;28;20198;-69
2022/04/16 05:39:28;;;;;;;0.70;0.70;;;17.90;64.70;;;;;;5186783;28;20669;-70
2022/04/16 05:42:20;;;;;;;1.63;0.63;;;17.90;64.70;;;;;;5198842;28;20569;-70
2022/04/16 05:45:15;;;;;;;1.50;0.77;;;17.90;64.70;;;;;;5206234;28;20774;-69
2022/04/16 05:48:08;;;;;;;0.73;0.70;;;17.90;64.70;;;;;;5207335;28;20209;-70
2022/04/16 05:51:00;;;;;;;0.63;0.43;;;17.90;64.70;;;;;;5208932;28;20573;-70
2022/04/16 05:53:53;;;;;;;1.03;0.47;;;17.90;64.70;;;;;;5208041;28;20198;-70
2022/04/16 05:56:46;;;;;;;0.50;0.50;;;17.90;64.70;;;;;;5206959;28;20194;-70
2022/04/16 05:59:38;;;;;;;1.40;0.80;;;17.90;64.70;;;;;;5208071;28;20228;-70
2022/04/16 06:02:32;;;;;;;0.60;0.37;;;17.90;64.70;;;;;;5212867;28;20213;-69
2022/04/16 06:05:24;;;;;;;0.53;0.53;;;17.90;64.70;;;;;;5215566;28;20565;-70
2022/04/16 06:08:16;;;;;;;1.07;0.77;;;17.90;64.70;;;;;;5204877;28;20356;-70
2022/04/16 06:11:11;;;;;;;0.60;0.47;;;17.90;64.70;;;;;;5207389;28;20238;-71
2022/04/16 06:14:03;;;;;;;0.60;0.50;;;17.90;64.70;;;;;;5205900;28;20224;-70
2022/04/16 06:16:55;;;;;;;0.40;0.40;;;17.90;64.70;;;;;;5206542;28;20569;-71
2022/04/16 06:19:48;;;;;;;0.70;0.50;;;17.90;64.70;;;;;;5205952;28;20446;-70
2022/04/16 06:22:41;;;;;;;1.10;0.70;;;17.90;64.70;;;;;;5206290;28;20220;-69
2022/04/16 06:25:33;;;;;;;1.00;0.53;;;17.90;64.70;;;;;;5206430;28;20601;-70
2022/04/16 06:28:25;;;;;;;0.80;0.50;;;17.90;64.70;;;;;;5206037;28;20198;-69
2022/04/16 06:31:17;;;;;;;1.00;0.60;;;17.90;64.70;;;;;;5206471;28;20201;-69
2022/04/16 06:34:09;;;;;;;0.73;0.60;;;17.90;64.70;;;;;;5214246;28;20205;-70
2022/04/16 06:37:03;;;;;;;0.53;0.53;;;17.90;64.70;;;;;;5206303;28;20569;-69
2022/04/16 06:39:55;;;;;;;0.50;0.50;;;17.90;64.70;;;;;;5205498;28;20198;-69
2022/04/16 06:42:48;;;;;;;0.60;0.60;;;17.90;64.80;;;;;;5205386;28;20692;-70
2022/04/16 06:45:40;;;;;;;1.07;0.60;;;17.90;64.70;;;;;;5205262;28;20214;-70
2022/04/16 06:48:32;;;;;;;0.93;0.47;;;17.80;64.60;;;;;;5206236;28;20251;-70
2022/04/16 06:51:24;;;;;;;0.60;0.60;;;17.90;64.70;;;;;;5217031;28;20216;-69
2022/04/16 06:54:18;;;;;;;1.03;0.70;;;17.90;64.70;;;;;;5210393;28;20220;-70
2022/04/16 06:57:10;;;;;;;1.13;0.63;;;17.90;64.70;;;;;;5205259;28;20194;-70
2022/04/16 07:00:04;;;;;;;0.73;0.60;;;17.90;64.70;;;;;;5204640;28;20235;-70
2022/04/16 07:02:56;;;;;;;0.83;0.67;;;17.90;64.70;;;;;;5204962;28;20600;-70
2022/04/16 07:05:48;;;;;;;1.23;0.60;;;17.90;64.70;;;;;;5220868;28;20221;-69
2022/04/16 07:08:40;;;;;;;0.57;0.57;;;17.90;64.70;;;;;;5204728;28;20251;-69
2022/04/16 07:11:33;;;;;;;0.83;0.53;;;17.90;64.70;;;;;;5210821;28;20669;-69
2022/04/16 07:14:25;;;;;;;0.70;0.60;;;17.90;64.70;;;;;;5185141;28;20207;-70
2022/04/16 07:17:18;;;;;;;0.80;0.60;;;17.90;64.70;;;;;;5188619;28;20195;-70
2022/04/16 07:20:10;;;;;;;1.00;0.70;;;17.90;64.80;;;;;;5187118;28;20559;-70
2022/04/16 07:23:05;;;;;;;0.80;0.50;;;17.80;64.80;;;;;;5185056;28;20210;-70
2022/04/16 07:25:57;;;;;;;0.50;0.50;;;17.90;64.90;;;;;;5185155;28;20578;-70
2022/04/16 07:28:51;;;;;;;0.50;0.40;;;17.90;64.90;;;;;;5184789;28;20611;-70
2022/04/16 07:31:43;;;;;;;0.77;0.50;;;17.90;64.90;;;;;;5190801;28;20198;-69
2022/04/16 07:34:35;;;;;;;0.57;0.57;;;17.90;64.90;;;;;;5204660;28;20701;-70
2022/04/16 07:37:27;;;;;;;0.70;0.50;;;17.90;64.90;;;;;;5204422;28;20190;-70
2022/04/16 07:40:20;;;;;;;1.07;0.40;;;17.90;64.90;;;;;;5204476;28;20229;-70
2022/04/16 07:43:14;;;;;;;0.50;0.43;;;17.90;64.90;;;;;;5204074;28;20217;-70
2022/04/16 07:46:08;;;;;;;0.60;0.60;;;17.90;64.90;;;;;;5217480;28;20565;-70
2022/04/16 07:49:00;;;;;;;0.70;0.50;;;17.90;64.90;;;;;;5206200;28;20205;-71
2022/04/16 07:51:52;;;;;;;0.50;0.50;;;17.90;64.90;;;;;;5210786;28;20336;-70
2022/04/16 07:54:44;;;;;;;0.53;0.40;;;17.90;65.00;;;;;;5184970;28;20222;-70
2022/04/16 07:57:36;;;;;;;0.50;0.40;;;17.90;65.00;;;;;;5185079;28;20201;-70
2022/04/16 08:00:29;;;;;;;1.00;0.50;;;17.90;65.00;;;;;;5184213;28;20213;-70
2022/04/16 08:03:22;;;;;;;0.43;0.40;;;17.90;65.00;;;;;;5181574;28;20219;-70
2022/04/16 08:06:14;;;;;;;0.40;0.40;;;17.90;65.00;;;;;;5184008;28;20218;-67
2022/04/16 08:09:06;;;;;;;1.00;0.33;;;17.90;65.00;;;;;;5193477;28;20194;-66
2022/04/16 08:11:58;;;;;;;0.43;0.30;;;17.90;65.00;;;;;;5202478;28;20208;-67
2022/04/16 08:14:50;;;;;;;1.37;0.60;;;17.90;65.00;;;;;;5197781;28;20287;-67
2022/04/16 08:17:43;;;;;;;0.33;0.30;;;17.90;65.00;;;;;;5183764;28;20200;-67
2022/04/16 08:20:36;;;;;;;0.57;0.50;;;17.90;65.00;;;;;;5199843;28;20197;-67
2022/04/16 08:23:28;;;;;;;0.30;0.30;;;17.90;65.10;;;;;;5188423;28;20578;-67
2022/04/16 08:26:21;;;;;;;0.93;0.60;;;17.80;65.00;;;;;;5198012;28;20221;-67
2022/04/16 08:29:13;;;;;;;0.73;0.40;;;17.80;65.00;;;;;;5203188;28;20677;-68
2022/04/16 08:32:07;;;;;;;0.27;0.27;;;17.80;65.00;;;;;;5202921;28;20216;-69
2022/04/16 08:34:59;;;;;;;0.60;0.30;;;17.80;65.10;;;;;;5203331;28;20294;-67
2022/04/16 08:37:53;;;;;;;0.80;0.60;;;17.90;65.10;;;;;;5205585;28;20198;-67
2022/04/16 08:40:45;;;;;;;0.57;0.50;;;17.90;65.10;;;;;;5204421;28;20197;-68
2022/04/16 08:43:39;;;;;;;0.40;0.40;;;17.90;65.20;;;;;;5209505;28;20216;-65
2022/04/16 08:46:33;;;;;;;0.30;0.30;;;17.80;65.10;;;;;;5204079;28;20197;-65
2022/04/16 08:49:26;;;;;;;0.70;0.43;;;17.90;65.20;;;;;;5203696;28;20198;-65
2022/04/16 08:52:19;;;;;;;0.80;0.43;;;17.90;65.30;;;;;;5223807;28;20193;-65
2022/04/16 08:55:13;;;;;;;0.53;0.30;;;17.90;65.30;;;;;;5223571;28;20710;-65
2022/04/16 08:58:05;;;;;;;0.80;0.47;;;17.90;65.40;;;;;;5223984;28;20197;-66
2022/04/16 09:00:59;;;;;;;0.40;0.40;;;17.90;65.40;;;;;;5223534;28;20611;-65
2022/04/16 09:03:55;;;;;;;1.50;0.43;;;17.90;65.40;;;;;;5223294;28;20632;-65
2022/04/16 09:06:57;;;;;;;1.67;0.47;;;17.90;65.30;;;;;;5223337;28;20194;-65
2022/04/16 09:09:49;;;;;;;0.47;0.30;;;17.90;65.30;;;;;;5216662;28;20233;-66
2022/04/16 09:12:44;;;;;;;0.80;0.40;;;17.90;65.30;;;;;;5208157;28;20520;-66
2022/04/16 09:15:36;;;;;;;0.93;0.50;;;17.90;65.30;;;;;;5210835;28;20221;-66
2022/04/16 09:18:28;;;;;;;0.87;0.40;;;17.90;63.90;;;;;;5206981;28;20198;-65
2022/04/16 09:21:24;;;;;;;0.77;0.57;;;17.90;62.30;;;;;;5206956;28;20197;-64
2022/04/16 09:24:16;;;;;;;2.67;0.30;;;17.90;54.90;;;;;;5196401;28;20717;-64
2022/04/16 09:27:09;;;;;;;0.57;0.27;;;17.80;53.40;;;;;;5187160;28;20217;-64
2022/04/16 09:30:05;;;;;;;1.10;0.50;;;17.80;48.90;;;;;;5186853;28;20207;-63
2022/04/16 09:32:59;;;;;;;0.87;0.40;;;17.80;50.40;;;;;;5187232;28;20208;-63
2022/04/16 09:35:55;;;;;;;4.27;0.80;;;17.80;50.90;;;;;;5187347;28;20225;-65
2022/04/16 09:38:49;;;;;;;1.33;0.63;;;17.80;51.60;;;;;;5205892;28;20201;-65
2022/04/16 09:41:44;;;;;;;1.93;0.50;;;17.80;50.30;;;;;;5206566;28;20186;-65
2022/04/16 09:44:36;;;;;;;16.67;2.03;;;17.80;48.60;;;;;;5197895;28;20218;-67
2022/04/16 09:47:31;;;;;;;14.10;2.70;;;17.80;50.30;;;;;;5209451;28;20240;-66
2022/04/16 09:50:24;;;;;;;7.30;2.20;;;17.90;52.00;;;;;;5210159;28;20194;-64
2022/04/16 09:53:21;;;;;;;10.07;3.10;;;17.90;51.50;;;;;;5225854;28;20191;-63
2022/04/16 09:56:15;;;;;;;4.60;1.00;;;18.00;53.30;;;;;;5227355;28;20212;-62
2022/04/16 09:59:09;;;;;;;5.37;1.13;;;17.90;48.10;;;;;;5226744;28;20215;-64
2022/04/16 10:02:03;;;;;;;4.82;1.13;;;17.90;48.00;;;;;;5225598;28;20904;-63
2022/04/16 10:04:57;;;;;;;3.07;0.93;;;17.90;46.50;;;;;;5210543;28;20280;-65
2022/04/16 10:07:49;;;;;;;3.23;0.67;;;17.90;48.90;;;;;;5186525;28;21056;-62
2022/04/16 10:10:46;;;;;;;2.10;0.80;;;17.90;49.70;;;;;;5205120;28;20230;-63
2022/04/16 10:13:45;;;;;;;2.87;0.80;;;17.80;49.20;;;;;;5209136;28;20277;-64
2022/04/16 10:16:47;;;;;;;1.53;0.70;;;17.80;50.20;;;;;;5186584;28;20269;-64
2022/04/16 10:19:40;;;;;;;0.73;0.50;;;17.70;49.40;;;;;;5185599;28;20687;-64
2022/04/16 10:22:34;;;;;;;0.40;0.30;;;17.80;49.30;;;;;;5201227;28;20337;-64
2022/04/16 10:25:34;;;;;;;0.57;0.30;;;17.70;45.60;;;;;;5204163;28;20213;-64
2022/04/16 10:28:28;;;;;;;1.53;0.47;;;17.70;46.00;;;;;;5186237;28;20198;-63
2022/04/16 10:31:25;;;;;;;1.67;0.70;;;17.70;46.60;;;;;;5193147;28;21002;-62
2022/04/16 10:34:20;;;;;;;2.53;0.90;;;17.60;46.30;;;;;;5204781;28;20226;-63
2022/04/16 10:37:22;;;;;;;1.60;0.73;;;17.70;47.10;;;;;;5185287;28;20195;-63
2022/04/16 10:40:18;;;;;;;1.03;0.50;;;17.60;47.40;;;;;;5182926;28;20229;-63
2022/04/16 10:43:12;;;;;;;0.70;0.60;;;17.60;45.80;;;;;;5182954;28;20698;-63
2022/04/16 10:46:06;;;;;;;0.43;0.40;;;17.60;44.50;;;;;;5183083;28;20210;-63
2022/04/16 10:48:58;;;;;;;1.80;0.63;;;17.60;45.00;;;;;;5183179;28;20569;-63
2022/04/16 10:51:52;;;;;;;1.27;0.50;;;17.60;45.30;;;;;;5215535;28;20583;-63
2022/04/16 10:54:47;;;;;;;0.70;0.50;;;17.60;45.20;;;;;;5224920;28;20217;-64
2022/04/16 10:57:40;;;;;;;0.70;0.30;;;17.50;43.60;;;;;;5225291;28;20197;-63
2022/04/16 11:00:37;;;;;;;0.50;0.30;;;17.60;43.10;;;;;;5225579;28;20677;-62
2022/04/16 11:03:30;;;;;;;0.50;0.30;;;17.50;43.40;;;;;;5226201;28;20214;-62
2022/04/16 11:06:33;;;;;;;2.33;0.53;;;17.50;42.70;;;;;;5226066;28;20217;-63
2022/04/16 11:09:25;;;;;;;0.73;0.40;;;17.50;43.50;;;;;;5220869;28;20198;-63
2022/04/16 11:12:21;;;;;;;0.97;0.30;;;17.50;44.30;;;;;;5207496;28;20197;-63
2022/04/16 11:15:18;;;;;;;1.03;0.30;;;17.50;44.20;;;;;;5205771;28;20214;-64
2022/04/16 11:18:11;;;;;;;0.30;0.30;;;17.50;44.40;;;;;;5212132;28;20198;-63
2022/04/16 11:21:07;;;;;;;0.37;0.20;;;17.50;45.00;;;;;;5185122;28;20210;-63
2022/04/16 11:24:05;;;;;;;0.30;0.20;;;17.50;45.50;;;;;;5184367;28;20211;-63
2022/04/16 11:36:34;;;;;;;0.83;0.30;;;17.40;40.30;;;;;;5204251;28;20186;-63
2022/04/16 11:39:28;;;;;;;1.47;0.50;;;17.40;38.20;;;;;;5204554;28;20200;-63
2022/04/16 11:42:24;;;;;;;0.70;0.40;;;17.30;36.50;;;;;;5204829;28;20568;-63
2022/04/16 11:45:17;;;;;;;0.70;0.40;;;17.30;35.90;;;;;;5210028;28;20220;-63
2022/04/16 11:48:12;;;;;;;0.60;0.33;;;17.30;35.60;;;;;;5185579;28;20191;-63
2022/04/16 11:51:05;;;;;;;0.67;0.37;;;17.30;36.80;;;;;;5203354;28;20690;-63
2022/04/16 11:53:58;;;;;;;0.43;0.40;;;17.30;35.50;;;;;;5185923;28;20190;-63
2022/04/16 11:56:51;;;;;;;0.90;0.40;;;17.20;36.40;;;;;;5186742;28;20426;-64
2022/04/16 11:59:43;;;;;;;0.30;0.20;;;17.30;34.10;;;;;;5203823;28;20198;-63
2022/04/16 12:02:38;;;;;;;0.80;0.40;;;17.30;34.20;;;;;;5204807;28;20207;-67
2022/04/16 12:05:30;;;;;;;0.57;0.40;;;17.20;34.20;;;;;;5209792;28;20300;-66
2022/04/16 12:08:22;;;;;;;0.73;0.43;;;17.20;35.20;;;;;;5210667;28;20665;-66
2022/04/16 12:11:14;;;;;;;0.30;0.17;;;17.10;37.40;;;;;;5214119;28;20189;-66
2022/04/16 12:14:06;;;;;;;0.33;0.33;;;17.10;39.30;;;;;;5214226;28;20268;-66
2022/04/16 12:16:59;;;;;;;1.07;0.43;;;17.10;40.30;;;;;;5209794;28;20247;-66
2022/04/16 12:20:08;;;;;;;1.23;0.30;;;17.10;41.30;;;;;;5211754;28;20376;-66
2022/04/16 12:23:02;;;;;;;1.70;0.30;;;17.20;42.10;;;;;;5210981;28;20197;-66
2022/04/16 12:26:04;;;;;;;0.93;0.40;;;17.20;42.80;;;;;;5213855;28;20728;-66
2022/04/16 12:28:56;;;;;;;2.47;0.40;;;17.20;43.40;;;;;;5204825;28;20817;-61
2022/04/16 12:31:56;;;;;;;0.70;0.37;;;17.30;44.70;;;;;;5214725;28;20316;-61
2022/04/16 12:34:48;;;;;;;0.30;0.30;;;17.30;44.50;;;;;;5225047;28;20243;-60
2022/04/16 12:37:41;;;;;;;3.53;1.17;;;17.40;44.90;;;;;;5223860;28;20422;-62
2022/04/16 12:40:34;;;;;;;4.80;1.50;;;17.50;46.50;;;;;;5215595;28;20303;-61
2022/04/16 12:43:26;;;;;;;2.97;1.23;;;17.50;46.20;;;;;;5203702;28;20216;-62
2022/04/16 12:46:19;;;;;;;1.97;0.90;;;17.50;46.70;;;;;;5203563;28;20853;-62
2022/04/16 12:49:11;;;;;;;1.40;0.83;;;17.50;47.10;;;;;;5205471;28;20197;-62
2022/04/16 12:52:03;;;;;;;3.80;1.00;;;17.50;47.70;;;;;;5225282;28;20576;-62
2022/04/16 12:54:57;;;;;;;0.93;0.50;;;17.50;47.90;;;;;;5227823;28;20216;-62
2022/04/16 12:57:49;;;;;;;2.50;0.87;;;17.60;48.20;;;;;;5222194;28;20198;-61
2022/04/16 13:00:41;;;;;;;0.80;0.40;;;17.50;48.50;;;;;;5208065;28;20198;-62
2022/04/16 13:03:34;;;;;;;0.47;0.40;;;17.60;48.80;;;;;;5207889;28;20194;-61
2022/04/16 13:06:26;;;;;;;1.17;0.63;;;17.60;49.00;;;;;;5207891;28;20588;-62
2022/04/16 13:09:18;;;;;;;0.73;0.53;;;17.60;49.20;;;;;;5215279;28;20228;-62
2022/04/16 13:12:12;;;;;;;0.80;0.60;;;17.60;49.40;;;;;;5187620;28;20248;-62
2022/04/16 13:15:05;;;;;;;2.43;0.60;;;17.60;49.70;;;;;;5186741;28;20218;-60
2022/04/16 13:17:57;;;;;;;2.00;0.40;;;17.60;49.90;;;;;;5201307;28;20581;-62
2022/04/16 13:20:50;;;;;;;1.50;0.57;;;17.50;50.00;;;;;;5187959;28;20201;-62
2022/04/16 13:23:42;;;;;;;0.50;0.40;;;17.50;50.20;;;;;;5200712;28;20673;-62
2022/04/16 13:26:34;;;;;;;0.47;0.30;;;17.50;50.40;;;;;;5206959;28;20194;-61
2022/04/16 13:29:27;;;;;;;1.07;0.60;;;17.60;50.60;;;;;;5207032;28;20198;-62
2022/04/16 13:32:20;;;;;;;0.67;0.40;;;17.50;50.80;;;;;;5207403;28;20198;-61
2022/04/16 13:35:12;;;;;;;0.43;0.30;;;17.60;50.90;;;;;;5207325;28;20221;-62
2022/04/16 13:38:04;;;;;;;0.57;0.40;;;17.50;51.00;;;;;;5208225;28;20665;-61
2022/04/16 13:44:07;;;;;;;1.47;0.50;;;17.60;51.40;;;;;;5206950;28;20206;-62
2022/04/16 13:47:01;;;;;;;0.53;0.30;;;17.60;51.50;;;;;;5207598;28;20564;-62
2022/04/16 13:49:53;;;;;;;0.40;0.33;;;17.60;51.60;;;;;;5208479;28;20657;-61
2022/04/16 13:52:46;;;;;;;1.03;0.30;;;17.50;52.20;;;;;;5207251;28;20186;-62
2022/04/16 13:55:38;;;;;;;0.87;0.33;;;17.60;51.80;;;;;;5207569;28;20283;-62
2022/04/16 13:58:30;;;;;;;0.83;0.53;;;17.50;51.90;;;;;;5202635;28;20230;-62
2022/04/16 14:01:23;;;;;;;0.53;0.30;;;17.50;52.00;;;;;;5204565;28;20200;-61
2022/04/16 14:04:17;;;;;;;0.30;0.30;;;17.60;52.10;;;;;;5206720;28;20214;-62
2022/04/16 14:07:09;;;;;;;0.50;0.30;;;17.50;52.20;;;;;;5207052;28;20205;-62
2022/04/16 14:10:02;;;;;;;1.20;0.37;;;17.50;52.30;;;;;;5198220;28;20270;-62
2022/04/16 14:12:54;;;;;;;0.80;0.40;;;17.60;52.50;;;;;;5186486;28;20202;-62
2022/04/16 14:15:46;;;;;;;0.83;0.43;;;17.50;52.50;;;;;;5187158;28;20210;-62
2022/04/16 14:18:38;;;;;;;0.87;0.30;;;17.50;52.60;;;;;;5186258;28;20191;-61
2022/04/16 14:21:32;;;;;;;0.30;0.20;;;17.50;52.70;;;;;;5195211;28;20200;-62
2022/04/16 14:24:24;;;;;;;1.07;0.40;;;17.50;52.80;;;;;;5206823;28;20585;-62
2022/04/16 14:27:16;;;;;;;0.93;0.30;;;17.50;52.90;;;;;;5213110;28;20657;-63
2022/04/16 14:30:09;;;;;;;0.63;0.40;;;17.50;52.90;;;;;;5206665;28;20276;-62
2022/04/16 14:33:02;;;;;;;0.20;0.20;;;17.50;53.00;;;;;;5206333;28;20669;-62
2022/04/16 14:35:54;;;;;;;0.30;0.20;;;17.50;53.10;;;;;;5205783;28;20222;-61
2022/04/16 14:38:47;;;;;;;0.53;0.30;;;17.50;53.20;;;;;;5206604;28;20565;-62
2022/04/16 14:41:39;;;;;;;0.30;0.30;;;17.50;53.20;;;;;;5206067;28;20190;-62
2022/04/16 14:44:34;;;;;;;0.40;0.30;;;17.50;53.30;;;;;;5207296;28;20217;-61
2022/04/16 14:47:26;;;;;;;0.50;0.40;;;17.50;53.40;;;;;;5205637;28;20197;-62
2022/04/16 14:50:18;;;;;;;0.77;0.30;;;17.50;53.50;;;;;;5209867;28;20193;-60
2022/04/16 14:53:10;;;;;;;0.43;0.30;;;17.50;53.50;;;;;;5213755;28;20190;-62
2022/04/16 14:56:04;;;;;;;0.50;0.30;;;17.50;53.60;;;;;;5206723;28;20217;-62
2022/04/16 14:58:58;;;;;;;0.77;0.30;;;17.50;53.70;;;;;;5210819;28;20683;-62
2022/04/16 15:01:50;;;;;;;0.47;0.30;;;17.50;53.80;;;;;;5216577;28;20226;-61
2022/04/16 15:04:42;;;;;;;0.30;0.27;;;17.60;53.80;;;;;;5225750;28;20604;-62
2022/04/16 15:07:34;;;;;;;0.40;0.30;;;17.50;53.90;;;;;;5225485;28;20193;-61
2022/04/16 15:10:26;;;;;;;0.60;0.30;;;17.50;53.90;;;;;;5225207;28;20198;-62
2022/04/16 15:13:19;;;;;;;0.40;0.30;;;17.50;54.00;;;;;;5205447;28;20538;-61
2022/04/16 15:16:11;;;;;;;0.60;0.20;;;17.50;54.00;;;;;;5205267;28;20217;-62
2022/04/16 15:19:03;;;;;;;0.30;0.20;;;17.50;54.10;;;;;;5206500;28;20194;-62
2022/04/16 15:21:56;;;;;;;0.30;0.30;;;17.50;54.20;;;;;;5204287;28;20201;-61
2022/04/16 15:24:49;;;;;;;0.20;0.20;;;17.50;54.20;;;;;;5204636;28;20214;-63
2022/04/16 15:27:41;;;;;;;0.50;0.33;;;17.60;54.30;;;;;;5206419;28;20206;-62